sensor_id;sensor_type;location;lat;lon;timestamp;P1;durP1;ratioP1;P2;durP2;ratioP2
5710;SDS011;61291;52.524;13.422;2023-06-22T00:01:27;60.60;;;54.80;;
5710;SDS011;61291;52.524;13.422;2023-06-22T00:03:52;63.73;;;57.63;;
5710;SDS011;61291;52.524;13.422;2023-06-22T00:06:18;63.50;;;57.40;;
5710;SDS011;61291;52.524;13.422;2023-06-22T00:08:43;63.53;;;57.77;;
5710;SDS011;61291;52.524;13.422;2023-06-22T00:11:09;61.63;;;55.97;;
5710;SDS011;61291;52.524;13.422;2023-06-22T00:13:35;64.27;;;58.07;;
5710;SDS011;61291;52.524;13.422;2023-06-22T00:16:00;64.90;;;58.90;;
5710;SDS011;61291;52.524;13.422;2023-06-22T00:18:26;63.03;;;56.80;;
5710;SDS011;61291;52.524;13.422;2023-06-22T00:20:53;65.43;;;58.60;;
5710;SDS011;61291;52.524;13.422;2023-06-22T00:23:22;63.30;;;57.40;;
5710;SDS011;61291;52.524;13.422;2023-06-22T00:25:48;62.63;;;56.92;;
5710;SDS011;61291;52.524;13.422;2023-06-22T00:28:14;59.43;;;54.03;;
5710;SDS011;61291;52.524;13.422;2023-06-22T00:30:39;62.10;;;56.40;;
5710;SDS011;61291;52.524;13.422;2023-06-22T00:33:05;62.33;;;56.63;;
5710;SDS011;61291;52.524;13.422;2023-06-22T00:35:32;61.10;;;55.33;;
5710;SDS011;61291;52.524;13.422;2023-06-22T00:37:59;63.40;;;57.33;;
5710;SDS011;61291;52.524;13.422;2023-06-22T00:40:29;61.73;;;55.90;;
5710;SDS011;61291;52.524;13.422;2023-06-22T00:42:55;60.20;;;54.70;;
5710;SDS011;61291;52.524;13.422;2023-06-22T00:45:22;61.93;;;55.63;;
5710;SDS011;61291;52.524;13.422;2023-06-22T00:47:54;58.90;;;53.10;;
5710;SDS011;61291;52.524;13.422;2023-06-22T00:50:22;65.93;;;59.30;;
5710;SDS011;61291;52.524;13.422;2023-06-22T00:52:52;63.30;;;57.30;;
5710;SDS011;61291;52.524;13.422;2023-06-22T00:55:21;63.73;;;57.47;;
5710;SDS011;61291;52.524;13.422;2023-06-22T00:57:48;58.30;;;52.63;;
5710;SDS011;61291;52.524;13.422;2023-06-22T01:00:14;65.63;;;59.30;;
5710;SDS011;61291;52.524;13.422;2023-06-22T01:02:44;62.37;;;56.40;;
5710;SDS011;61291;52.524;13.422;2023-06-22T01:05:14;62.13;;;56.30;;
5710;SDS011;61291;52.524;13.422;2023-06-22T01:12:44;63.80;;;57.70;;
5710;SDS011;61291;52.524;13.422;2023-06-22T01:15:15;62.73;;;56.63;;
5710;SDS011;61291;52.524;13.422;2023-06-22T01:17:46;62.37;;;56.57;;
5710;SDS011;61291;52.524;13.422;2023-06-22T01:20:14;63.93;;;57.67;;
5710;SDS011;61291;52.524;13.422;2023-06-22T01:22:51;61.00;;;55.13;;
5710;SDS011;61291;52.524;13.422;2023-06-22T01:25:21;63.87;;;57.30;;
5710;SDS011;61291;52.524;13.422;2023-06-22T01:27:58;64.60;;;58.20;;
5710;SDS011;61291;52.524;13.422;2023-06-22T01:30:40;65.77;;;59.27;;
5710;SDS011;61291;52.524;13.422;2023-06-22T01:33:06;62.93;;;56.90;;
5710;SDS011;61291;52.524;13.422;2023-06-22T01:35:36;61.70;;;55.53;;
5710;SDS011;61291;52.524;13.422;2023-06-22T01:38:03;60.30;;;54.73;;
5710;SDS011;61291;52.524;13.422;2023-06-22T01:40:28;62.07;;;56.37;;
5710;SDS011;61291;52.524;13.422;2023-06-22T01:42:55;64.70;;;58.37;;
5710;SDS011;61291;52.524;13.422;2023-06-22T01:45:21;62.87;;;56.87;;
5710;SDS011;61291;52.524;13.422;2023-06-22T01:47:47;62.77;;;56.60;;
5710;SDS011;61291;52.524;13.422;2023-06-22T01:50:13;63.23;;;57.03;;
5710;SDS011;61291;52.524;13.422;2023-06-22T01:52:39;63.70;;;57.80;;
5710;SDS011;61291;52.524;13.422;2023-06-22T01:55:04;62.23;;;55.60;;
5710;SDS011;61291;52.524;13.422;2023-06-22T01:57:31;63.30;;;56.90;;
5710;SDS011;61291;52.524;13.422;2023-06-22T02:00:01;63.73;;;57.70;;
5710;SDS011;61291;52.524;13.422;2023-06-22T02:02:37;63.83;;;57.93;;
5710;SDS011;61291;52.524;13.422;2023-06-22T02:05:08;64.00;;;57.90;;
5710;SDS011;61291;52.524;13.422;2023-06-22T02:07:38;67.30;;;60.73;;
5710;SDS011;61291;52.524;13.422;2023-06-22T02:10:09;68.97;;;62.57;;
5710;SDS011;61291;52.524;13.422;2023-06-22T02:12:38;66.37;;;60.07;;
5710;SDS011;61291;52.524;13.422;2023-06-22T02:15:04;65.90;;;59.27;;
5710;SDS011;61291;52.524;13.422;2023-06-22T02:17:31;67.40;;;60.70;;
5710;SDS011;61291;52.524;13.422;2023-06-22T02:19:58;65.90;;;59.50;;
5710;SDS011;61291;52.524;13.422;2023-06-22T02:22:23;67.90;;;61.67;;
5710;SDS011;61291;52.524;13.422;2023-06-22T02:24:49;68.27;;;61.87;;
5710;SDS011;61291;52.524;13.422;2023-06-22T02:27:14;68.07;;;61.77;;
5710;SDS011;61291;52.524;13.422;2023-06-22T02:29:40;73.67;;;66.63;;
5710;SDS011;61291;52.524;13.422;2023-06-22T02:32:05;73.87;;;66.87;;
5710;SDS011;61291;52.524;13.422;2023-06-22T02:34:31;65.80;;;59.80;;
5710;SDS011;61291;52.524;13.422;2023-06-22T02:36:58;70.13;;;63.60;;
5710;SDS011;61291;52.524;13.422;2023-06-22T02:39:26;69.83;;;63.20;;
5710;SDS011;61291;52.524;13.422;2023-06-22T02:41:52;73.90;;;67.30;;
5710;SDS011;61291;52.524;13.422;2023-06-22T02:44:19;74.47;;;67.20;;
5710;SDS011;61291;52.524;13.422;2023-06-22T02:46:45;69.60;;;63.23;;
5710;SDS011;61291;52.524;13.422;2023-06-22T02:49:11;72.80;;;65.87;;
5710;SDS011;61291;52.524;13.422;2023-06-22T02:51:42;67.30;;;60.93;;
5710;SDS011;61291;52.524;13.422;2023-06-22T02:54:10;70.47;;;63.97;;
5710;SDS011;61291;52.524;13.422;2023-06-22T02:56:35;66.83;;;60.30;;
5710;SDS011;61291;52.524;13.422;2023-06-22T02:59:01;70.17;;;63.50;;
5710;SDS011;61291;52.524;13.422;2023-06-22T03:01:27;73.60;;;66.90;;
5710;SDS011;61291;52.524;13.422;2023-06-22T03:03:55;71.30;;;64.60;;
5710;SDS011;61291;52.524;13.422;2023-06-22T03:06:21;67.40;;;61.20;;
5710;SDS011;61291;52.524;13.422;2023-06-22T03:08:53;70.67;;;64.00;;
5710;SDS011;61291;52.524;13.422;2023-06-22T03:11:24;71.97;;;65.77;;
5710;SDS011;61291;52.524;13.422;2023-06-22T03:13:49;70.67;;;63.40;;
5710;SDS011;61291;52.524;13.422;2023-06-22T03:16:17;69.80;;;63.50;;
5710;SDS011;61291;52.524;13.422;2023-06-22T03:18:43;68.67;;;61.67;;
5710;SDS011;61291;52.524;13.422;2023-06-22T03:21:09;71.73;;;64.93;;
5710;SDS011;61291;52.524;13.422;2023-06-22T03:23:35;65.83;;;59.27;;
5710;SDS011;61291;52.524;13.422;2023-06-22T03:26:01;65.90;;;60.00;;
5710;SDS011;61291;52.524;13.422;2023-06-22T03:28:26;61.50;;;55.90;;
5710;SDS011;61291;52.524;13.422;2023-06-22T03:30:52;64.53;;;58.57;;
5710;SDS011;61291;52.524;13.422;2023-06-22T03:33:18;63.10;;;56.90;;
5710;SDS011;61291;52.524;13.422;2023-06-22T03:35:43;65.53;;;58.97;;
5710;SDS011;61291;52.524;13.422;2023-06-22T03:38:09;63.90;;;58.00;;
5710;SDS011;61291;52.524;13.422;2023-06-22T03:40:34;67.07;;;61.00;;
5710;SDS011;61291;52.524;13.422;2023-06-22T03:42:59;60.07;;;54.50;;
5710;SDS011;61291;52.524;13.422;2023-06-22T03:45:25;62.13;;;55.80;;
5710;SDS011;61291;52.524;13.422;2023-06-22T03:47:50;59.77;;;53.90;;
5710;SDS011;61291;52.524;13.422;2023-06-22T03:50:16;63.37;;;57.27;;
5710;SDS011;61291;52.524;13.422;2023-06-22T03:52:41;59.50;;;53.80;;
5710;SDS011;61291;52.524;13.422;2023-06-22T03:55:07;63.67;;;57.97;;
5710;SDS011;61291;52.524;13.422;2023-06-22T03:57:33;66.50;;;60.37;;
5710;SDS011;61291;52.524;13.422;2023-06-22T03:59:58;62.97;;;57.20;;
5710;SDS011;61291;52.524;13.422;2023-06-22T04:02:24;62.10;;;56.30;;
5710;SDS011;61291;52.524;13.422;2023-06-22T04:04:50;60.23;;;54.50;;
5710;SDS011;61291;52.524;13.422;2023-06-22T04:07:16;61.90;;;56.27;;
5710;SDS011;61291;52.524;13.422;2023-06-22T04:09:42;60.67;;;55.23;;
5710;SDS011;61291;52.524;13.422;2023-06-22T04:12:08;64.13;;;58.03;;
5710;SDS011;61291;52.524;13.422;2023-06-22T04:14:34;62.77;;;57.30;;
5710;SDS011;61291;52.524;13.422;2023-06-22T04:16:59;55.80;;;50.50;;
5710;SDS011;61291;52.524;13.422;2023-06-22T04:19:26;60.50;;;55.17;;
5710;SDS011;61291;52.524;13.422;2023-06-22T04:21:51;59.60;;;53.87;;
5710;SDS011;61291;52.524;13.422;2023-06-22T04:24:17;62.53;;;56.53;;
5710;SDS011;61291;52.524;13.422;2023-06-22T04:26:42;60.80;;;55.10;;
5710;SDS011;61291;52.524;13.422;2023-06-22T04:29:10;61.83;;;55.50;;
5710;SDS011;61291;52.524;13.422;2023-06-22T04:31:35;58.30;;;52.70;;
5710;SDS011;61291;52.524;13.422;2023-06-22T04:34:02;60.03;;;54.83;;
5710;SDS011;61291;52.524;13.422;2023-06-22T04:36:38;53.10;;;47.83;;
5710;SDS011;61291;52.524;13.422;2023-06-22T04:39:09;57.53;;;51.90;;
5710;SDS011;61291;52.524;13.422;2023-06-22T04:41:36;58.77;;;53.37;;
5710;SDS011;61291;52.524;13.422;2023-06-22T04:44:11;60.67;;;54.97;;
5710;SDS011;61291;52.524;13.422;2023-06-22T04:46:38;51.13;;;46.03;;
5710;SDS011;61291;52.524;13.422;2023-06-22T04:49:05;53.07;;;47.73;;
5710;SDS011;61291;52.524;13.422;2023-06-22T04:51:40;53.53;;;48.25;;
5710;SDS011;61291;52.524;13.422;2023-06-22T04:54:06;57.13;;;51.87;;
5710;SDS011;61291;52.524;13.422;2023-06-22T04:56:32;49.40;;;44.23;;
5710;SDS011;61291;52.524;13.422;2023-06-22T04:58:58;56.30;;;50.93;;
5710;SDS011;61291;52.524;13.422;2023-06-22T05:01:24;59.20;;;53.15;;
5710;SDS011;61291;52.524;13.422;2023-06-22T05:03:50;61.33;;;55.60;;
5710;SDS011;61291;52.524;13.422;2023-06-22T05:06:16;59.77;;;54.33;;
5710;SDS011;61291;52.524;13.422;2023-06-22T05:08:42;62.90;;;56.90;;
5710;SDS011;61291;52.524;13.422;2023-06-22T05:11:08;57.43;;;51.83;;
5710;SDS011;61291;52.524;13.422;2023-06-22T05:13:34;60.83;;;55.23;;
5710;SDS011;61291;52.524;13.422;2023-06-22T05:15:59;56.23;;;51.27;;
5710;SDS011;61291;52.524;13.422;2023-06-22T05:18:28;56.30;;;51.10;;
5710;SDS011;61291;52.524;13.422;2023-06-22T05:20:54;53.17;;;48.27;;
5710;SDS011;61291;52.524;13.422;2023-06-22T05:23:20;57.13;;;51.53;;
5710;SDS011;61291;52.524;13.422;2023-06-22T05:25:45;51.83;;;46.47;;
5710;SDS011;61291;52.524;13.422;2023-06-22T05:28:10;58.17;;;53.37;;
5710;SDS011;61291;52.524;13.422;2023-06-22T05:30:37;68.03;;;60.80;;
5710;SDS011;61291;52.524;13.422;2023-06-22T05:33:03;62.87;;;57.87;;
5710;SDS011;61291;52.524;13.422;2023-06-22T05:35:28;60.47;;;56.07;;
5710;SDS011;61291;52.524;13.422;2023-06-22T05:37:54;61.90;;;57.10;;
5710;SDS011;61291;52.524;13.422;2023-06-22T05:40:20;58.20;;;53.70;;
5710;SDS011;61291;52.524;13.422;2023-06-22T05:42:46;63.37;;;58.40;;
5710;SDS011;61291;52.524;13.422;2023-06-22T05:45:12;55.50;;;51.23;;
5710;SDS011;61291;52.524;13.422;2023-06-22T05:47:38;68.50;;;63.03;;
5710;SDS011;61291;52.524;13.422;2023-06-22T05:50:04;69.33;;;63.73;;
5710;SDS011;61291;52.524;13.422;2023-06-22T05:52:31;66.53;;;62.10;;
5710;SDS011;61291;52.524;13.422;2023-06-22T05:54:57;69.40;;;64.83;;
5710;SDS011;61291;52.524;13.422;2023-06-22T05:57:23;69.40;;;64.70;;
5710;SDS011;61291;52.524;13.422;2023-06-22T05:59:48;68.33;;;63.80;;
5710;SDS011;61291;52.524;13.422;2023-06-22T06:02:14;58.13;;;53.92;;
5710;SDS011;61291;52.524;13.422;2023-06-22T06:04:39;67.40;;;62.63;;
5710;SDS011;61291;52.524;13.422;2023-06-22T06:07:05;60.60;;;56.20;;
5710;SDS011;61291;52.524;13.422;2023-06-22T06:09:30;67.17;;;62.40;;
5710;SDS011;61291;52.524;13.422;2023-06-22T06:11:56;62.33;;;57.63;;
5710;SDS011;61291;52.524;13.422;2023-06-22T06:14:21;71.30;;;66.50;;
5710;SDS011;61291;52.524;13.422;2023-06-22T06:16:48;68.70;;;64.00;;
5710;SDS011;61291;52.524;13.422;2023-06-22T06:19:14;66.47;;;61.37;;
5710;SDS011;61291;52.524;13.422;2023-06-22T06:21:39;58.73;;;53.83;;
5710;SDS011;61291;52.524;13.422;2023-06-22T06:24:05;67.20;;;62.33;;
5710;SDS011;61291;52.524;13.422;2023-06-22T06:26:30;64.77;;;59.57;;
5710;SDS011;61291;52.524;13.422;2023-06-22T06:28:59;68.67;;;63.37;;
5710;SDS011;61291;52.524;13.422;2023-06-22T06:31:25;70.03;;;65.27;;
5710;SDS011;61291;52.524;13.422;2023-06-22T06:33:53;63.33;;;58.93;;
5710;SDS011;61291;52.524;13.422;2023-06-22T06:36:19;57.90;;;53.70;;
5710;SDS011;61291;52.524;13.422;2023-06-22T06:38:45;70.33;;;65.53;;
5710;SDS011;61291;52.524;13.422;2023-06-22T06:41:12;67.80;;;62.90;;
5710;SDS011;61291;52.524;13.422;2023-06-22T06:43:38;66.83;;;62.37;;
5710;SDS011;61291;52.524;13.422;2023-06-22T06:46:04;64.67;;;60.07;;
5710;SDS011;61291;52.524;13.422;2023-06-22T06:48:29;58.73;;;54.60;;
5710;SDS011;61291;52.524;13.422;2023-06-22T06:50:55;65.97;;;61.23;;
5710;SDS011;61291;52.524;13.422;2023-06-22T06:53:20;65.57;;;61.10;;
5710;SDS011;61291;52.524;13.422;2023-06-22T06:55:46;70.07;;;64.83;;
5710;SDS011;61291;52.524;13.422;2023-06-22T06:58:11;67.77;;;62.73;;
5710;SDS011;61291;52.524;13.422;2023-06-22T07:00:38;71.53;;;65.93;;
5710;SDS011;61291;52.524;13.422;2023-06-22T07:03:04;71.00;;;66.00;;
5710;SDS011;61291;52.524;13.422;2023-06-22T07:05:30;72.87;;;67.37;;
5710;SDS011;61291;52.524;13.422;2023-06-22T07:07:55;69.17;;;64.33;;
5710;SDS011;61291;52.524;13.422;2023-06-22T07:10:21;63.80;;;59.30;;
5710;SDS011;61291;52.524;13.422;2023-06-22T07:12:46;69.40;;;64.23;;
5710;SDS011;61291;52.524;13.422;2023-06-22T07:15:13;67.80;;;63.20;;
5710;SDS011;61291;52.524;13.422;2023-06-22T07:17:39;76.63;;;70.63;;
5710;SDS011;61291;52.524;13.422;2023-06-22T07:20:08;75.35;;;69.40;;
5710;SDS011;61291;52.524;13.422;2023-06-22T07:22:36;76.17;;;71.17;;
5710;SDS011;61291;52.524;13.422;2023-06-22T07:25:03;72.20;;;67.13;;
5710;SDS011;61291;52.524;13.422;2023-06-22T07:27:33;71.80;;;66.80;;
5710;SDS011;61291;52.524;13.422;2023-06-22T07:30:03;74.17;;;68.80;;
5710;SDS011;61291;52.524;13.422;2023-06-22T07:32:29;69.97;;;64.50;;
5710;SDS011;61291;52.524;13.422;2023-06-22T07:34:54;63.07;;;58.47;;
5710;SDS011;61291;52.524;13.422;2023-06-22T07:37:20;66.97;;;62.20;;
5710;SDS011;61291;52.524;13.422;2023-06-22T07:39:46;71.93;;;67.17;;
5710;SDS011;61291;52.524;13.422;2023-06-22T07:42:11;69.30;;;64.40;;
5710;SDS011;61291;52.524;13.422;2023-06-22T07:44:37;68.40;;;63.13;;
5710;SDS011;61291;52.524;13.422;2023-06-22T07:47:02;64.97;;;60.17;;
5710;SDS011;61291;52.524;13.422;2023-06-22T07:49:28;64.33;;;59.93;;
5710;SDS011;61291;52.524;13.422;2023-06-22T07:51:54;70.57;;;65.57;;
5710;SDS011;61291;52.524;13.422;2023-06-22T07:54:20;68.23;;;63.43;;
5710;SDS011;61291;52.524;13.422;2023-06-22T07:56:46;67.30;;;62.70;;
5710;SDS011;61291;52.524;13.422;2023-06-22T07:59:11;60.83;;;56.00;;
5710;SDS011;61291;52.524;13.422;2023-06-22T08:01:37;60.70;;;56.10;;
5710;SDS011;61291;52.524;13.422;2023-06-22T08:04:02;62.00;;;57.17;;
5710;SDS011;61291;52.524;13.422;2023-06-22T08:06:29;58.83;;;54.50;;
5710;SDS011;61291;52.524;13.422;2023-06-22T08:08:55;59.17;;;55.13;;
5710;SDS011;61291;52.524;13.422;2023-06-22T08:11:23;59.03;;;54.93;;
5710;SDS011;61291;52.524;13.422;2023-06-22T08:13:50;56.93;;;53.00;;
5710;SDS011;61291;52.524;13.422;2023-06-22T08:16:16;57.60;;;52.83;;
5710;SDS011;61291;52.524;13.422;2023-06-22T08:18:43;52.90;;;48.70;;
5710;SDS011;61291;52.524;13.422;2023-06-22T08:21:08;56.77;;;52.57;;
5710;SDS011;61291;52.524;13.422;2023-06-22T08:23:34;64.20;;;59.07;;
5710;SDS011;61291;52.524;13.422;2023-06-22T08:26:02;61.00;;;56.47;;
5710;SDS011;61291;52.524;13.422;2023-06-22T08:28:28;63.60;;;59.30;;
5710;SDS011;61291;52.524;13.422;2023-06-22T08:30:54;63.63;;;58.93;;
5710;SDS011;61291;52.524;13.422;2023-06-22T08:33:20;57.70;;;53.30;;
5710;SDS011;61291;52.524;13.422;2023-06-22T08:35:48;60.57;;;56.57;;
5710;SDS011;61291;52.524;13.422;2023-06-22T08:38:14;58.50;;;53.80;;
5710;SDS011;61291;52.524;13.422;2023-06-22T08:40:40;62.73;;;58.40;;
5710;SDS011;61291;52.524;13.422;2023-06-22T08:43:06;60.40;;;56.20;;
5710;SDS011;61291;52.524;13.422;2023-06-22T08:45:31;57.37;;;53.17;;
5710;SDS011;61291;52.524;13.422;2023-06-22T08:47:57;57.17;;;53.20;;
5710;SDS011;61291;52.524;13.422;2023-06-22T08:50:22;60.37;;;56.27;;
5710;SDS011;61291;52.524;13.422;2023-06-22T08:52:48;56.77;;;52.77;;
5710;SDS011;61291;52.524;13.422;2023-06-22T08:55:13;59.87;;;55.60;;
5710;SDS011;61291;52.524;13.422;2023-06-22T08:57:39;63.20;;;58.60;;
5710;SDS011;61291;52.524;13.422;2023-06-22T09:00:05;62.23;;;57.73;;
5710;SDS011;61291;52.524;13.422;2023-06-22T09:02:40;57.17;;;52.87;;
5710;SDS011;61291;52.524;13.422;2023-06-22T09:05:05;62.00;;;57.40;;
5710;SDS011;61291;52.524;13.422;2023-06-22T09:07:37;62.83;;;57.67;;
5710;SDS011;61291;52.524;13.422;2023-06-22T09:10:03;56.73;;;52.53;;
5710;SDS011;61291;52.524;13.422;2023-06-22T09:12:30;59.03;;;54.90;;
5710;SDS011;61291;52.524;13.422;2023-06-22T09:14:57;57.93;;;53.83;;
5710;SDS011;61291;52.524;13.422;2023-06-22T09:17:24;59.20;;;54.70;;
5710;SDS011;61291;52.524;13.422;2023-06-22T09:19:50;63.33;;;58.73;;
5710;SDS011;61291;52.524;13.422;2023-06-22T09:22:15;60.30;;;55.90;;
5710;SDS011;61291;52.524;13.422;2023-06-22T09:24:41;60.93;;;56.47;;
5710;SDS011;61291;52.524;13.422;2023-06-22T09:27:06;62.47;;;57.97;;
5710;SDS011;61291;52.524;13.422;2023-06-22T09:29:32;55.47;;;50.85;;
5710;SDS011;61291;52.524;13.422;2023-06-22T09:31:58;63.40;;;58.87;;
5710;SDS011;61291;52.524;13.422;2023-06-22T09:34:24;62.60;;;58.40;;
5710;SDS011;61291;52.524;13.422;2023-06-22T09:36:50;64.17;;;59.20;;
5710;SDS011;61291;52.524;13.422;2023-06-22T09:39:17;60.77;;;56.60;;
5710;SDS011;61291;52.524;13.422;2023-06-22T09:41:43;60.37;;;56.10;;
5710;SDS011;61291;52.524;13.422;2023-06-22T09:44:09;65.97;;;60.27;;
5710;SDS011;61291;52.524;13.422;2023-06-22T09:46:35;63.23;;;58.80;;
5710;SDS011;61291;52.524;13.422;2023-06-22T09:49:00;65.90;;;61.40;;
5710;SDS011;61291;52.524;13.422;2023-06-22T09:51:26;67.37;;;62.37;;
5710;SDS011;61291;52.524;13.422;2023-06-22T09:53:51;66.73;;;62.00;;
5710;SDS011;61291;52.524;13.422;2023-06-22T09:56:18;68.13;;;63.63;;
5710;SDS011;61291;52.524;13.422;2023-06-22T09:58:45;61.97;;;57.73;;
5710;SDS011;61291;52.524;13.422;2023-06-22T10:01:11;61.23;;;56.50;;
5710;SDS011;61291;52.524;13.422;2023-06-22T10:03:37;68.23;;;63.60;;
5710;SDS011;61291;52.524;13.422;2023-06-22T10:06:03;64.67;;;60.27;;
5710;SDS011;61291;52.524;13.422;2023-06-22T10:08:28;64.03;;;59.20;;
5710;SDS011;61291;52.524;13.422;2023-06-22T10:10:54;66.60;;;61.63;;
5710;SDS011;61291;52.524;13.422;2023-06-22T10:13:20;73.37;;;68.07;;
5710;SDS011;61291;52.524;13.422;2023-06-22T10:15:45;66.50;;;61.90;;
5710;SDS011;61291;52.524;13.422;2023-06-22T10:18:15;64.63;;;60.07;;
5710;SDS011;61291;52.524;13.422;2023-06-22T10:20:41;69.93;;;65.13;;
5710;SDS011;61291;52.524;13.422;2023-06-22T10:23:06;68.63;;;63.73;;
5710;SDS011;61291;52.524;13.422;2023-06-22T10:25:32;63.97;;;59.63;;
5710;SDS011;61291;52.524;13.422;2023-06-22T10:27:57;67.07;;;62.80;;
5710;SDS011;61291;52.524;13.422;2023-06-22T10:30:23;70.83;;;66.27;;
5710;SDS011;61291;52.524;13.422;2023-06-22T10:32:49;66.53;;;61.90;;
5710;SDS011;61291;52.524;13.422;2023-06-22T10:35:14;71.40;;;66.60;;
5710;SDS011;61291;52.524;13.422;2023-06-22T10:37:41;73.13;;;68.03;;
5710;SDS011;61291;52.524;13.422;2023-06-22T10:40:11;65.80;;;59.90;;
5710;SDS011;61291;52.524;13.422;2023-06-22T10:42:38;64.83;;;59.67;;
5710;SDS011;61291;52.524;13.422;2023-06-22T10:45:04;74.93;;;69.53;;
5710;SDS011;61291;52.524;13.422;2023-06-22T10:47:30;75.97;;;70.80;;
5710;SDS011;61291;52.524;13.422;2023-06-22T10:49:55;70.17;;;65.27;;
5710;SDS011;61291;52.524;13.422;2023-06-22T10:52:21;74.70;;;69.80;;
5710;SDS011;61291;52.524;13.422;2023-06-22T10:54:46;70.63;;;65.60;;
5710;SDS011;61291;52.524;13.422;2023-06-22T10:57:12;71.50;;;66.60;;
5710;SDS011;61291;52.524;13.422;2023-06-22T10:59:38;69.73;;;64.50;;
5710;SDS011;61291;52.524;13.422;2023-06-22T11:02:04;61.63;;;57.23;;
5710;SDS011;61291;52.524;13.422;2023-06-22T11:04:30;61.77;;;57.60;;
5710;SDS011;61291;52.524;13.422;2023-06-22T11:06:55;61.27;;;56.97;;
5710;SDS011;61291;52.524;13.422;2023-06-22T11:09:21;69.33;;;64.53;;
5710;SDS011;61291;52.524;13.422;2023-06-22T11:11:47;62.60;;;57.80;;
5710;SDS011;61291;52.524;13.422;2023-06-22T11:14:15;68.43;;;63.43;;
5710;SDS011;61291;52.524;13.422;2023-06-22T11:16:40;64.03;;;59.93;;
5710;SDS011;61291;52.524;13.422;2023-06-22T11:19:06;65.20;;;61.00;;
5710;SDS011;61291;52.524;13.422;2023-06-22T11:21:32;61.37;;;57.37;;
5710;SDS011;61291;52.524;13.422;2023-06-22T11:23:58;59.17;;;54.77;;
5710;SDS011;61291;52.524;13.422;2023-06-22T11:26:24;65.13;;;60.53;;
5710;SDS011;61291;52.524;13.422;2023-06-22T11:28:52;60.20;;;55.63;;
5710;SDS011;61291;52.524;13.422;2023-06-22T11:31:18;56.33;;;52.20;;
5710;SDS011;61291;52.524;13.422;2023-06-22T11:33:43;58.57;;;53.90;;
5710;SDS011;61291;52.524;13.422;2023-06-22T11:36:10;62.93;;;58.07;;
5710;SDS011;61291;52.524;13.422;2023-06-22T11:38:36;62.30;;;57.37;;
5710;SDS011;61291;52.524;13.422;2023-06-22T11:41:04;60.50;;;56.40;;
5710;SDS011;61291;52.524;13.422;2023-06-22T11:43:32;63.97;;;59.10;;
5710;SDS011;61291;52.524;13.422;2023-06-22T11:45:58;61.60;;;57.03;;
5710;SDS011;61291;52.524;13.422;2023-06-22T11:48:24;56.47;;;52.77;;
5710;SDS011;61291;52.524;13.422;2023-06-22T11:50:50;65.17;;;60.97;;
5710;SDS011;61291;52.524;13.422;2023-06-22T11:53:16;62.67;;;58.27;;
5710;SDS011;61291;52.524;13.422;2023-06-22T11:55:42;59.57;;;55.17;;
5710;SDS011;61291;52.524;13.422;2023-06-22T11:58:08;65.40;;;61.00;;
5710;SDS011;61291;52.524;13.422;2023-06-22T12:00:34;61.90;;;57.80;;
5710;SDS011;61291;52.524;13.422;2023-06-22T12:03:00;64.10;;;59.30;;
5710;SDS011;61291;52.524;13.422;2023-06-22T12:05:25;66.73;;;61.93;;
5710;SDS011;61291;52.524;13.422;2023-06-22T12:07:52;64.90;;;60.03;;
5710;SDS011;61291;52.524;13.422;2023-06-22T12:10:18;57.40;;;53.57;;
5710;SDS011;61291;52.524;13.422;2023-06-22T12:12:44;64.47;;;60.00;;
5710;SDS011;61291;52.524;13.422;2023-06-22T12:15:09;74.67;;;69.47;;
5710;SDS011;61291;52.524;13.422;2023-06-22T12:17:35;69.10;;;62.10;;
5710;SDS011;61291;52.524;13.422;2023-06-22T12:20:01;63.57;;;59.37;;
5710;SDS011;61291;52.524;13.422;2023-06-22T12:22:30;71.07;;;66.47;;
5710;SDS011;61291;52.524;13.422;2023-06-22T12:24:59;69.13;;;64.33;;
5710;SDS011;61291;52.524;13.422;2023-06-22T12:27:24;67.90;;;63.60;;
5710;SDS011;61291;52.524;13.422;2023-06-22T12:29:50;65.73;;;61.23;;
5710;SDS011;61291;52.524;13.422;2023-06-22T12:32:16;73.20;;;68.03;;
5710;SDS011;61291;52.524;13.422;2023-06-22T12:34:42;68.30;;;63.30;;
5710;SDS011;61291;52.524;13.422;2023-06-22T12:37:08;76.10;;;70.80;;
5710;SDS011;61291;52.524;13.422;2023-06-22T12:39:34;73.67;;;68.30;;
5710;SDS011;61291;52.524;13.422;2023-06-22T12:42:00;79.50;;;74.00;;
5710;SDS011;61291;52.524;13.422;2023-06-22T12:44:25;76.97;;;71.20;;
5710;SDS011;61291;52.524;13.422;2023-06-22T12:46:51;77.10;;;71.80;;
5710;SDS011;61291;52.524;13.422;2023-06-22T12:49:17;69.90;;;65.10;;
5710;SDS011;61291;52.524;13.422;2023-06-22T12:51:43;69.53;;;64.73;;
5710;SDS011;61291;52.524;13.422;2023-06-22T12:54:08;72.07;;;67.10;;
5710;SDS011;61291;52.524;13.422;2023-06-22T12:56:35;70.60;;;66.00;;
5710;SDS011;61291;52.524;13.422;2023-06-22T12:59:00;68.93;;;64.27;;
5710;SDS011;61291;52.524;13.422;2023-06-22T13:01:26;65.72;;;61.22;;
5710;SDS011;61291;52.524;13.422;2023-06-22T13:03:52;66.13;;;61.63;;
5710;SDS011;61291;52.524;13.422;2023-06-22T13:06:18;66.00;;;61.03;;
5710;SDS011;61291;52.524;13.422;2023-06-22T13:08:44;72.43;;;67.20;;
5710;SDS011;61291;52.524;13.422;2023-06-22T13:11:09;65.00;;;60.60;;
5710;SDS011;61291;52.524;13.422;2023-06-22T13:13:35;70.53;;;65.73;;
5710;SDS011;61291;52.524;13.422;2023-06-22T13:16:01;73.13;;;68.53;;
5710;SDS011;61291;52.524;13.422;2023-06-22T13:18:26;71.20;;;66.30;;
5710;SDS011;61291;52.524;13.422;2023-06-22T13:20:52;67.20;;;62.40;;
5710;SDS011;61291;52.524;13.422;2023-06-22T13:23:19;73.00;;;67.80;;
5710;SDS011;61291;52.524;13.422;2023-06-22T13:25:45;70.90;;;66.00;;
5710;SDS011;61291;52.524;13.422;2023-06-22T13:28:11;67.77;;;63.37;;
5710;SDS011;61291;52.524;13.422;2023-06-22T13:30:38;70.00;;;65.23;;
5710;SDS011;61291;52.524;13.422;2023-06-22T13:33:05;68.67;;;63.87;;
5710;SDS011;61291;52.524;13.422;2023-06-22T13:35:31;70.37;;;65.53;;
5710;SDS011;61291;52.524;13.422;2023-06-22T13:37:56;68.80;;;63.90;;
5710;SDS011;61291;52.524;13.422;2023-06-22T13:40:22;67.37;;;62.90;;
5710;SDS011;61291;52.524;13.422;2023-06-22T13:42:48;65.60;;;61.27;;
5710;SDS011;61291;52.524;13.422;2023-06-22T13:45:14;67.50;;;62.90;;
5710;SDS011;61291;52.524;13.422;2023-06-22T13:47:42;69.87;;;65.23;;
5710;SDS011;61291;52.524;13.422;2023-06-22T13:50:07;68.50;;;63.53;;
5710;SDS011;61291;52.524;13.422;2023-06-22T13:52:33;72.37;;;67.47;;
5710;SDS011;61291;52.524;13.422;2023-06-22T13:54:59;64.37;;;59.67;;
5710;SDS011;61291;52.524;13.422;2023-06-22T13:57:25;66.80;;;62.10;;
5710;SDS011;61291;52.524;13.422;2023-06-22T13:59:50;65.70;;;61.40;;
5710;SDS011;61291;52.524;13.422;2023-06-22T14:02:16;60.90;;;56.57;;
5710;SDS011;61291;52.524;13.422;2023-06-22T14:04:41;66.93;;;62.30;;
5710;SDS011;61291;52.524;13.422;2023-06-22T14:07:07;67.70;;;63.23;;
5710;SDS011;61291;52.524;13.422;2023-06-22T14:09:32;65.30;;;60.67;;
5710;SDS011;61291;52.524;13.422;2023-06-22T14:11:58;67.53;;;63.03;;
5710;SDS011;61291;52.524;13.422;2023-06-22T14:14:28;69.00;;;64.10;;
5710;SDS011;61291;52.524;13.422;2023-06-22T14:16:54;66.00;;;61.40;;
5710;SDS011;61291;52.524;13.422;2023-06-22T14:19:19;69.03;;;64.43;;
5710;SDS011;61291;52.524;13.422;2023-06-22T14:21:45;63.77;;;59.43;;